createdAt,value
2022-12-03T00:00:21.280Z,55.03
2022-12-03T00:02:53.721Z,64.47
2022-12-03T00:05:25.425Z,57.97
2022-12-03T00:07:57.260Z,62.17
2022-12-03T00:10:28.970Z,56.72
2022-12-03T00:13:03.183Z,51.63
2022-12-03T00:15:35.017Z,62.47
2022-12-03T00:18:06.693Z,60.72
2022-12-03T00:20:38.291Z,57.47
2022-12-03T00:23:09.897Z,62.45
2022-12-03T00:25:41.574Z,57.88
2022-12-03T00:28:13.184Z,60.05
2022-12-03T00:30:44.840Z,58.75
2022-12-03T00:33:19.407Z,56.55
2022-12-03T00:35:51.131Z,61.03
2022-12-03T00:38:22.911Z,58.95
2022-12-03T00:40:54.696Z,59.63
2022-12-03T00:43:27.483Z,60.35
2022-12-03T00:46:01.191Z,63.63
2022-12-03T00:48:32.851Z,62.58
2022-12-03T00:51:08.426Z,56.95
2022-12-03T00:53:40.139Z,53.25
2022-12-03T00:56:14.543Z,59.85
2022-12-03T00:58:46.221Z,43.83
2022-12-03T01:01:17.995Z,60.42
2022-12-03T01:03:51.841Z,60.22
2022-12-03T01:06:23.518Z,55.40
2022-12-03T01:08:57.504Z,56.15
2022-12-03T01:11:41.705Z,61.38
2022-12-03T01:14:17.700Z,61.22
2022-12-03T01:16:52.271Z,57.05
2022-12-03T01:19:25.229Z,59.70
2022-12-03T01:21:57.235Z,57.60
2022-12-03T01:24:29.823Z,57.83
2022-12-03T01:27:01.811Z,62.05
2022-12-03T01:29:35.784Z,43.38
2022-12-03T01:32:20.636Z,61.40
2022-12-03T01:34:54.441Z,67.32
2022-12-03T01:37:26.910Z,59.42
2022-12-03T01:39:59.748Z,64.78
2022-12-03T01:42:39.512Z,62.30
2022-12-03T01:45:21.745Z,72.45
2022-12-03T01:47:54.133Z,70.22
2022-12-03T01:50:33.778Z,66.05
2022-12-03T01:53:14.728Z,66.15
2022-12-03T01:55:51.202Z,66.85
2022-12-03T01:58:27.082Z,67.40
2022-12-03T02:01:04.438Z,67.82
2022-12-03T02:03:37.615Z,67.05
2022-12-03T02:06:16.772Z,66.97
2022-12-03T02:08:53.321Z,70.22
2022-12-03T02:11:35.560Z,68.43
2022-12-03T02:14:27.055Z,68.15
2022-12-03T02:17:04.619Z,63.20
2022-12-03T02:19:36.231Z,66.93
2022-12-03T02:22:48.388Z,68.47
2022-12-03T02:25:27.542Z,68.05
2022-12-03T02:28:04.037Z,71.95
2022-12-03T02:30:36.341Z,72.72
2022-12-03T02:33:13.041Z,73.90
2022-12-03T02:35:45.324Z,72.70
2022-12-03T02:38:18.717Z,78.10
2022-12-03T02:40:54.753Z,74.90
2022-12-03T02:43:29.283Z,77.13
2022-12-03T02:46:04.911Z,72.18
2022-12-03T02:48:47.272Z,79.40
2022-12-03T02:51:21.994Z,67.78
2022-12-03T02:53:55.601Z,73.35
2022-12-03T02:56:31.910Z,70.25
2022-12-03T02:59:05.662Z,76.00
2022-12-03T03:01:37.715Z,73.25
2022-12-03T03:04:13.501Z,75.30
2022-12-03T03:06:49.519Z,76.35
2022-12-03T03:09:24.613Z,76.30
2022-12-03T03:11:56.247Z,66.00
2022-12-03T03:14:30.211Z,65.90
2022-12-03T03:19:42.286Z,68.57
2022-12-03T03:22:13.927Z,71.13
2022-12-03T03:24:45.649Z,69.70
2022-12-03T03:27:17.256Z,73.78
2022-12-03T03:29:48.847Z,68.68
2022-12-03T03:32:24.225Z,74.13
2022-12-03T03:34:59.622Z,68.68
2022-12-03T03:37:33.949Z,65.43
2022-12-03T03:40:08.042Z,71.90
2022-12-03T03:42:40.051Z,65.68
2022-12-03T03:45:11.793Z,73.03
2022-12-03T03:47:43.809Z,68.00
2022-12-03T03:50:23.497Z,63.20
2022-12-03T03:52:57.806Z,65.10
2022-12-03T03:55:31.062Z,61.38
2022-12-03T03:58:05.741Z,62.05
2022-12-03T04:00:45.726Z,64.20
2022-12-03T04:03:17.393Z,63.15
2022-12-03T04:05:51.078Z,61.75
2022-12-03T04:08:22.833Z,65.45
2022-12-03T04:11:12.843Z,66.50
2022-12-03T04:13:44.464Z,58.28
2022-12-03T04:16:16.047Z,63.40
2022-12-03T04:18:47.793Z,62.65
2022-12-03T04:21:40.762Z,60.45
2022-12-03T04:24:12.467Z,59.10
2022-12-03T04:27:06.156Z,64.03
2022-12-03T04:29:37.788Z,61.72
2022-12-03T04:32:28.249Z,58.30
2022-12-03T04:35:18.621Z,62.63
2022-12-03T04:37:53.409Z,63.30
2022-12-03T04:43:16.417Z,61.25
2022-12-03T04:45:48.012Z,65.22
2022-12-03T04:48:19.607Z,62.45
2022-12-03T04:50:51.365Z,62.58
2022-12-03T04:53:22.971Z,63.25
2022-12-03T04:55:54.628Z,60.20
2022-12-03T04:58:26.186Z,61.70
2022-12-03T05:00:58.477Z,61.78
2022-12-03T05:03:30.069Z,60.53
2022-12-03T05:06:02.997Z,60.47
2022-12-03T05:08:35.644Z,49.33
2022-12-03T05:11:13.362Z,63.67
2022-12-03T05:13:49.328Z,59.33
2022-12-03T05:16:23.818Z,56.78
2022-12-03T05:21:29.571Z,69.47
2022-12-03T05:24:02.394Z,59.67
2022-12-03T05:26:34.191Z,56.42
2022-12-03T05:29:06.083Z,56.13
2022-12-03T05:31:40.754Z,67.20
2022-12-03T05:34:12.355Z,58.38
2022-12-03T05:36:44.060Z,53.83
2022-12-03T05:39:15.631Z,55.80
2022-12-03T05:42:05.885Z,53.33
2022-12-03T05:44:37.415Z,58.20
2022-12-03T05:47:12.141Z,61.97
2022-12-03T05:49:43.787Z,53.67
2022-12-03T05:52:15.760Z,60.97
2022-12-03T05:54:53.669Z,54.38
2022-12-03T05:57:25.569Z,54.25
2022-12-03T06:00:39.059Z,64.05
2022-12-03T06:03:13.775Z,60.00
2022-12-03T06:05:45.704Z,63.35
2022-12-03T06:08:17.321Z,53.72
2022-12-03T06:10:49.054Z,56.97
2022-12-03T06:13:20.726Z,55.40
2022-12-03T06:15:52.491Z,54.42
2022-12-03T06:18:24.522Z,58.13
2022-12-03T06:20:56.158Z,59.75
2022-12-03T06:23:27.800Z,57.67
2022-12-03T06:25:59.387Z,53.55
2022-12-03T06:28:31.010Z,52.97
2022-12-03T06:31:02.845Z,55.72
2022-12-03T06:33:34.466Z,57.13
2022-12-03T06:36:07.167Z,54.17
2022-12-03T06:38:44.553Z,54.95
2022-12-03T06:43:48.133Z,56.63
2022-12-03T06:46:19.960Z,54.53
2022-12-03T06:48:51.671Z,51.97
2022-12-03T06:51:23.287Z,56.85
2022-12-03T06:53:54.983Z,50.65
2022-12-03T06:56:36.759Z,56.45
2022-12-03T06:59:11.092Z,53.23
2022-12-03T07:01:42.847Z,58.53
2022-12-03T07:04:14.552Z,56.60
2022-12-03T07:06:46.088Z,54.63
2022-12-03T07:09:18.774Z,55.40
2022-12-03T07:11:50.368Z,54.33
2022-12-03T07:14:22.077Z,56.60
2022-12-03T07:16:53.943Z,53.28
2022-12-03T07:19:32.087Z,57.58
2022-12-03T07:22:04.354Z,54.72
2022-12-03T07:24:40.115Z,56.60
2022-12-03T07:27:11.816Z,52.85
2022-12-03T07:29:43.434Z,54.78
2022-12-03T07:32:14.984Z,50.47
2022-12-03T07:34:46.657Z,48.38
2022-12-03T07:37:22.862Z,56.13
2022-12-03T07:39:57.264Z,52.50
2022-12-03T07:42:31.283Z,49.33
2022-12-03T07:45:03.677Z,52.70
2022-12-03T07:47:35.255Z,55.00
2022-12-03T07:50:07.508Z,52.25
2022-12-03T07:52:39.117Z,45.80
2022-12-03T07:55:14.154Z,52.20
2022-12-03T07:57:46.084Z,52.05
2022-12-03T08:00:20.025Z,53.15
2022-12-03T08:02:52.158Z,50.07
2022-12-03T08:05:26.982Z,54.22
2022-12-03T08:07:59.845Z,46.90
2022-12-03T08:10:31.498Z,51.50
2022-12-03T08:13:10.617Z,52.95
2022-12-03T08:15:46.942Z,51.17
2022-12-03T08:18:21.466Z,48.65
2022-12-03T08:20:55.877Z,49.08
2022-12-03T08:23:28.562Z,51.00
2022-12-03T08:26:02.318Z,48.00
2022-12-03T08:28:34.061Z,48.55
2022-12-03T08:31:21.055Z,49.40
2022-12-03T08:34:00.724Z,50.60
2022-12-03T08:36:36.502Z,43.22
2022-12-03T08:39:48.322Z,45.92
2022-12-03T08:42:42.360Z,45.15
2022-12-03T08:45:30.350Z,48.55
2022-12-03T08:48:05.628Z,49.08
2022-12-03T08:50:41.175Z,43.08
2022-12-03T08:53:32.699Z,44.72
2022-12-03T08:56:06.278Z,48.75
2022-12-03T09:01:30.260Z,48.15
2022-12-03T09:04:23.213Z,47.85
2022-12-03T09:06:55.805Z,51.20
2022-12-03T09:09:34.649Z,44.50
2022-12-03T09:12:09.613Z,46.15
2022-12-03T09:14:41.279Z,50.88
2022-12-03T09:17:12.908Z,49.53
2022-12-03T09:19:46.277Z,47.45
2022-12-03T09:22:18.585Z,47.20
2022-12-03T09:24:50.249Z,45.35
2022-12-03T09:27:25.713Z,48.03
2022-12-03T09:29:57.545Z,51.60
2022-12-03T09:32:29.303Z,46.45
2022-12-03T09:35:01.283Z,51.00
2022-12-03T09:37:32.892Z,44.45
2022-12-03T09:40:06.179Z,44.22
2022-12-03T09:42:39.406Z,45.15
2022-12-03T09:45:14.748Z,46.42
2022-12-03T09:47:50.693Z,44.13
2022-12-03T09:50:25.455Z,45.92
2022-12-03T09:53:02.029Z,47.33
2022-12-03T09:55:33.972Z,47.83
2022-12-03T09:58:12.576Z,46.45
2022-12-03T10:04:00.591Z,44.58
2022-12-03T10:06:32.266Z,46.67
2022-12-03T10:09:06.909Z,48.58
2022-12-03T10:11:40.590Z,43.97
2022-12-03T10:14:16.997Z,47.53
2022-12-03T10:16:48.940Z,47.38
2022-12-03T10:19:30.135Z,43.88
2022-12-03T10:22:01.964Z,49.38
2022-12-03T10:24:38.793Z,44.58
2022-12-03T10:27:32.782Z,47.58
2022-12-03T10:30:14.657Z,44.90
2022-12-03T10:32:49.340Z,43.38
2022-12-03T10:35:46.413Z,47.42
2022-12-03T10:38:17.940Z,40.95
2022-12-03T10:40:50.455Z,46.67
2022-12-03T10:43:30.700Z,41.93
2022-12-03T10:46:04.679Z,47.95
2022-12-03T10:48:39.723Z,43.00
2022-12-03T10:53:50.628Z,41.47
2022-12-03T10:56:25.626Z,44.30
2022-12-03T11:01:29.347Z,43.65
2022-12-03T11:04:04.426Z,45.55
2022-12-03T11:06:36.537Z,42.53
2022-12-03T11:09:17.525Z,45.55
2022-12-03T11:11:49.767Z,43.22
2022-12-03T11:15:05.187Z,42.30
2022-12-03T11:17:51.280Z,41.83
2022-12-03T11:20:23.263Z,45.92
2022-12-03T11:22:59.306Z,40.70
2022-12-03T11:25:50.400Z,41.58
2022-12-03T11:28:21.943Z,47.50
2022-12-03T11:30:58.567Z,40.03
2022-12-03T11:33:33.236Z,39.67
2022-12-03T11:36:13.952Z,42.90
2022-12-03T11:38:56.043Z,43.25
2022-12-03T11:41:33.369Z,49.35
2022-12-03T11:44:29.350Z,42.30
2022-12-03T11:47:12.488Z,42.88
2022-12-03T11:49:49.535Z,42.90
2022-12-03T11:52:39.304Z,45.60
2022-12-03T11:55:26.423Z,39.72
2022-12-03T11:58:04.903Z,43.20
2022-12-03T12:00:36.463Z,47.42
2022-12-03T12:03:26.606Z,47.78
2022-12-03T12:06:06.089Z,45.88
2022-12-03T12:08:42.227Z,43.88
2022-12-03T12:11:26.416Z,43.05
2022-12-03T12:14:12.126Z,43.42
2022-12-03T12:16:52.550Z,48.78
2022-12-03T12:19:30.066Z,43.42
2022-12-03T12:22:31.885Z,42.92
2022-12-03T12:25:24.538Z,41.33
2022-12-03T12:28:00.208Z,48.03
2022-12-03T12:30:32.023Z,45.75
2022-12-03T12:33:22.993Z,48.25
2022-12-03T12:35:54.833Z,43.58
2022-12-03T12:38:28.193Z,44.72
2022-12-03T12:41:06.713Z,47.72
2022-12-03T12:43:39.557Z,52.40
2022-12-03T12:46:46.083Z,48.70
2022-12-03T12:49:11.451Z,50.88
2022-12-03T12:51:50.232Z,52.08
2022-12-03T12:54:22.155Z,44.22
2022-12-03T12:56:53.809Z,45.97
2022-12-03T12:59:25.980Z,48.55
2022-12-03T13:02:01.688Z,46.08
2022-12-03T13:04:39.940Z,51.25
2022-12-03T13:07:11.533Z,44.85
2022-12-03T13:09:43.120Z,42.17
2022-12-03T13:12:24.320Z,46.88
2022-12-03T13:15:00.362Z,48.30
2022-12-03T13:17:34.080Z,46.85
2022-12-03T13:20:17.240Z,45.72
2022-12-03T13:22:49.173Z,43.85
2022-12-03T13:28:30.764Z,45.42
2022-12-03T13:31:21.283Z,42.88
2022-12-03T13:33:56.936Z,45.22
2022-12-03T13:36:55.373Z,47.38
2022-12-03T13:39:36.465Z,48.85
2022-12-03T13:42:40.640Z,49.40
2022-12-03T13:45:15.092Z,46.20
2022-12-03T13:47:55.687Z,46.85
2022-12-03T13:50:43.968Z,42.85
2022-12-03T13:53:22.569Z,47.35
2022-12-03T13:56:30.467Z,42.83
2022-12-03T13:59:03.987Z,42.58
2022-12-03T14:01:38.616Z,42.85
2022-12-03T14:04:11.080Z,43.72
2022-12-03T14:06:42.766Z,43.00
2022-12-03T14:09:14.536Z,46.40
2022-12-03T14:12:05.001Z,44.42
2022-12-03T14:14:36.642Z,43.45
2022-12-03T14:17:10.616Z,46.17
2022-12-03T14:19:42.292Z,45.58
2022-12-03T14:22:14.803Z,49.28
2022-12-03T14:24:46.556Z,49.00
2022-12-03T14:27:18.962Z,47.60
2022-12-03T14:29:53.054Z,42.05
2022-12-03T14:32:28.450Z,43.17
2022-12-03T14:35:01.177Z,44.03
2022-12-03T14:37:36.009Z,45.63
2022-12-03T14:40:09.113Z,49.25
2022-12-03T14:42:40.818Z,45.38
2022-12-03T14:45:12.380Z,47.63
2022-12-03T14:47:44.008Z,43.28
2022-12-03T14:50:15.665Z,44.42
2022-12-03T14:52:47.294Z,43.50
2022-12-03T14:55:19.069Z,47.45
2022-12-03T14:57:51.067Z,41.35
2022-12-03T15:00:22.792Z,38.25
2022-12-03T15:02:54.890Z,42.13
2022-12-03T15:05:28.876Z,43.50
2022-12-03T15:08:00.933Z,39.05
2022-12-03T15:10:32.579Z,41.03
2022-12-03T15:13:07.762Z,48.33
2022-12-03T15:15:39.580Z,43.10
2022-12-03T15:18:11.509Z,41.45
2022-12-03T15:20:43.159Z,41.70
2022-12-03T15:23:14.911Z,43.25
2022-12-03T15:25:47.625Z,37.17
2022-12-03T15:30:55.964Z,40.00
2022-12-03T15:33:28.680Z,41.72
2022-12-03T15:36:00.337Z,44.72
2022-12-03T15:38:32.033Z,42.92
2022-12-03T15:41:23.690Z,42.10
2022-12-03T15:43:58.432Z,39.00
2022-12-03T15:46:31.770Z,36.30
2022-12-03T15:49:03.489Z,40.22
2022-12-03T15:51:35.121Z,39.15
2022-12-03T15:54:06.839Z,42.65
2022-12-03T15:56:43.617Z,40.67
2022-12-03T15:59:16.596Z,40.75
2022-12-03T16:01:48.284Z,37.75
2022-12-03T16:04:22.992Z,41.97
2022-12-03T16:06:57.668Z,42.47
2022-12-03T16:09:31.591Z,40.22
2022-12-03T16:12:03.362Z,34.88
2022-12-03T16:14:34.986Z,41.67
2022-12-03T16:17:06.614Z,40.47
2022-12-03T16:19:38.221Z,41.45
2022-12-03T16:22:12.777Z,40.97
2022-12-03T16:27:16.433Z,36.42
2022-12-03T16:29:48.212Z,40.97
2022-12-03T16:32:20.139Z,42.50
2022-12-03T16:34:54.831Z,41.72
2022-12-03T16:37:26.626Z,37.22
2022-12-03T16:39:58.634Z,36.78
2022-12-03T16:42:30.320Z,39.70
2022-12-03T16:45:04.758Z,41.17
2022-12-03T16:47:36.840Z,42.67
2022-12-03T16:50:14.162Z,39.90
2022-12-03T16:52:49.805Z,39.33
2022-12-03T16:55:21.540Z,42.22
2022-12-03T16:57:53.365Z,40.08
2022-12-03T17:00:27.553Z,39.17
2022-12-03T17:02:59.241Z,29.02
2022-12-03T17:05:31.046Z,39.47
2022-12-03T17:08:02.734Z,37.35
2022-12-03T17:10:34.540Z,42.20
2022-12-03T17:13:10.561Z,41.22
2022-12-03T17:15:42.573Z,40.55
2022-12-03T17:18:14.493Z,42.15
2022-12-03T17:20:46.196Z,38.97
2022-12-03T17:23:18.478Z,43.75
2022-12-03T17:25:53.061Z,43.20
2022-12-03T17:28:24.879Z,40.25
2022-12-03T17:30:56.587Z,44.92
2022-12-03T17:33:30.073Z,42.75
2022-12-03T17:36:02.462Z,39.03
2022-12-03T17:38:39.117Z,45.35
2022-12-03T17:41:16.085Z,39.72
2022-12-03T17:43:47.671Z,39.22
2022-12-03T17:46:19.852Z,41.95
2022-12-03T17:48:51.443Z,41.25
2022-12-03T17:51:25.774Z,43.75
2022-12-03T17:53:57.457Z,43.75
2022-12-03T17:56:29.280Z,39.38
2022-12-03T17:59:01.011Z,44.95
2022-12-03T18:01:33.842Z,41.65
2022-12-03T18:04:06.035Z,38.78
2022-12-03T18:06:41.420Z,41.13
2022-12-03T18:09:13.287Z,42.88
2022-12-03T18:11:45.100Z,40.50
2022-12-03T18:14:19.257Z,40.72
2022-12-03T18:16:50.997Z,36.25
2022-12-03T18:19:22.582Z,36.70
2022-12-03T18:21:57.381Z,40.58
2022-12-03T18:27:00.676Z,40.22
2022-12-03T18:29:32.299Z,40.03
2022-12-03T18:32:27.711Z,36.83
2022-12-03T18:35:01.060Z,48.40
2022-12-03T18:37:35.895Z,39.30
2022-12-03T18:40:13.526Z,42.42
2022-12-03T18:42:47.077Z,47.78
2022-12-03T18:45:21.088Z,42.67
2022-12-03T18:47:52.808Z,43.00
2022-12-03T18:50:24.510Z,42.20
2022-12-03T18:52:56.114Z,39.35
2022-12-03T18:55:31.289Z,39.45
2022-12-03T18:58:03.045Z,40.58
2022-12-03T19:00:38.160Z,34.88
2022-12-03T19:03:10.232Z,37.97
2022-12-03T19:05:42.190Z,41.10
2022-12-03T19:08:19.258Z,39.40
2022-12-03T19:11:01.318Z,38.53
2022-12-03T19:13:33.252Z,36.63
2022-12-03T19:16:06.597Z,39.75
2022-12-03T19:18:39.346Z,39.70
2022-12-03T19:21:16.090Z,52.40
2022-12-03T19:24:22.108Z,36.85
2022-12-03T19:26:39.598Z,34.65
2022-12-03T19:29:14.241Z,37.55
2022-12-03T19:31:45.943Z,46.40
2022-12-03T19:34:17.767Z,43.20
2022-12-03T19:36:49.449Z,39.85
2022-12-03T19:39:24.387Z,43.40
2022-12-03T19:41:56.131Z,47.38
2022-12-03T19:44:27.740Z,43.15
2022-12-03T19:46:59.490Z,40.63
2022-12-03T19:49:31.257Z,44.55
2022-12-03T19:52:03.049Z,42.45
2022-12-03T19:54:37.459Z,42.47
2022-12-03T19:57:22.792Z,44.13
2022-12-03T19:59:55.380Z,41.78
2022-12-03T20:02:30.387Z,38.50
2022-12-03T20:05:02.118Z,42.10
2022-12-03T20:07:33.766Z,42.88
2022-12-03T20:10:08.368Z,46.40
2022-12-03T20:12:40.604Z,44.17
2022-12-03T20:15:13.713Z,49.72
2022-12-03T20:17:45.419Z,48.00
2022-12-03T20:20:19.121Z,42.22
2022-12-03T20:22:51.856Z,43.10
2022-12-03T20:25:25.762Z,42.65
2022-12-03T20:27:57.405Z,48.93
2022-12-03T20:30:29.148Z,46.22
2022-12-03T20:33:00.774Z,50.92
2022-12-03T20:35:33.375Z,51.55
2022-12-03T20:38:07.650Z,49.47
2022-12-03T20:40:39.329Z,37.55
2022-12-03T20:43:10.943Z,52.58
2022-12-03T20:45:43.704Z,51.30
2022-12-03T20:48:15.488Z,52.17
2022-12-03T20:50:47.108Z,45.75
2022-12-03T20:53:24.949Z,51.58
2022-12-03T20:56:01.568Z,53.47
2022-12-03T20:58:34.698Z,53.13
2022-12-03T21:01:15.178Z,52.40
2022-12-03T21:03:48.445Z,50.60
2022-12-03T21:06:21.862Z,52.58
2022-12-03T21:08:54.694Z,55.65
2022-12-03T21:11:32.092Z,56.55
2022-12-03T21:14:04.216Z,52.20
2022-12-03T21:17:07.279Z,46.40
2022-12-03T21:19:31.243Z,57.28
2022-12-03T21:22:07.006Z,58.40
2022-12-03T21:24:38.836Z,57.00
2022-12-03T21:27:10.459Z,55.17
2022-12-03T21:29:42.044Z,52.35
2022-12-03T21:32:13.800Z,60.13
2022-12-03T21:34:48.383Z,63.80
2022-12-03T21:37:23.081Z,55.30
2022-12-03T21:39:55.859Z,66.50
2022-12-03T21:42:36.146Z,61.47
2022-12-03T21:45:13.345Z,57.05
2022-12-03T21:50:20.439Z,66.00
2022-12-03T21:52:52.840Z,61.60
2022-12-03T21:55:27.287Z,51.10
2022-12-03T21:57:58.952Z,66.75
2022-12-03T22:00:30.585Z,69.82
2022-12-03T22:03:02.404Z,64.20
2022-12-03T22:05:34.114Z,65.45
2022-12-03T22:08:08.009Z,66.43
2022-12-03T22:10:42.863Z,66.50
2022-12-03T22:13:14.481Z,65.15
2022-12-03T22:15:46.220Z,54.67
2022-12-03T22:18:17.873Z,65.60
2022-12-03T22:20:49.490Z,61.80
2022-12-03T22:23:22.152Z,57.33
2022-12-03T22:26:01.111Z,68.80
2022-12-03T22:28:33.954Z,62.95
2022-12-03T22:31:16.388Z,63.70
2022-12-03T22:33:49.742Z,56.42
2022-12-03T22:36:22.076Z,63.67
2022-12-03T22:38:53.758Z,63.20
2022-12-03T22:41:25.325Z,61.85
2022-12-03T22:43:56.921Z,63.22
2022-12-03T22:46:28.524Z,61.83
2022-12-03T22:49:06.470Z,69.30
2022-12-03T22:51:39.300Z,67.40
2022-12-03T22:54:10.983Z,69.80
2022-12-03T22:56:42.675Z,59.33
2022-12-03T22:59:14.579Z,59.95
2022-12-03T23:01:46.297Z,67.63
2022-12-03T23:04:18.025Z,55.88
2022-12-03T23:06:49.685Z,65.72
2022-12-03T23:09:21.268Z,67.55
2022-12-03T23:11:52.828Z,65.85
2022-12-03T23:14:29.005Z,75.63
2022-12-03T23:17:00.665Z,66.03
2022-12-03T23:19:32.705Z,71.95
2022-12-03T23:22:04.259Z,70.05
2022-12-03T23:24:36.632Z,70.82
2022-12-03T23:27:08.237Z,70.68
2022-12-03T23:29:42.591Z,65.65
2022-12-03T23:32:17.044Z,74.07
2022-12-03T23:34:48.780Z,73.70
2022-12-03T23:37:23.649Z,63.50
2022-12-03T23:42:27.157Z,71.95
2022-12-03T23:44:58.792Z,66.93
2022-12-03T23:47:30.392Z,72.20
2022-12-03T23:50:02.834Z,67.60
2022-12-03T23:52:37.612Z,68.32
2022-12-03T23:55:10.600Z,68.10
2022-12-03T23:57:42.196Z,71.15
